Portada
METAR-TAF:

METAR-TAF

Aeropuertos :

Aeropuerto de Rímini

Rímini, Italia

latitud: 44-02N, longitud: 012-37E, altitud: 12 m

Observación

El informe se hizo hace 39 minutos, a las 13:50 UTC
Viento 7 kt del norte-noreste, variando entre norte y noreste
Temperatura 9°C
Humedad 31%
Presión 1020 hPa
Visibilidad 10 km o más
sin nubes por debajo de 1500 m y sin presencia de cumulonimbus.

METAR: LIPR 011350Z 03007KT 350V050 CAVOK 09/M07 Q1020

Hora: 16:29 (14:29 UTC)

Pronóstico

El informe se hizo hace 2 horas y 29 minutos, a las 12:00 UTC
Pronóstico válido del 01 a las 12 UTC al 01 a las 21 UTC
Viento 12 kt del norte-noreste
Visibilidad 10 km o más
Nubes dispersas a una altura de 3000 ft
Evolucionando progresivamente
del 01 a las 16 UTC al 01 a las 18 UTC
Viento 8 kt del norte-noroeste

TAF: LIPR 011200Z 0112/0121 03012KT 9999 SCT030 BECMG 0116/0118 33008KT

Observaciones y pronósticos meteorológicos de más de 4000 aeropuertos (mensajes METAR y TAF).

Los puntos amarillos y rojos representan las estaciones disponibles.

Ponga el ratón en el punto deseado para ver el nombre de la estación.

Haga clic para ver las observaciones y los pronósticos meteorológicos.

Para cambiar el mapa : haga clic en los botones verdes con una cruz de color negro para hacer un zoom, en el botón verde con un guión para alejar o en las flechas verdes para mapas adyacentes.


METAR-TAF: